sensor_id;sensor_type;location;lat;lon;timestamp;pressure;altitude;pressure_sealevel;temperature;humidity
9139;BME280;4604;48.616;9.548;2023-02-12T00:01:00;98833.25;;;3.70;100.00
9139;BME280;4604;48.616;9.548;2023-02-12T00:03:27;98835.84;;;3.70;100.00
9139;BME280;4604;48.616;9.548;2023-02-12T00:05:59;98824.59;;;3.68;100.00
9139;BME280;4604;48.616;9.548;2023-02-12T00:08:26;98828.97;;;3.67;100.00
9139;BME280;4604;48.616;9.548;2023-02-12T00:10:52;98841.06;;;3.70;100.00
9139;BME280;4604;48.616;9.548;2023-02-12T00:13:19;98837.66;;;3.68;100.00
9139;BME280;4604;48.616;9.548;2023-02-12T00:15:46;98835.81;;;3.71;100.00
9139;BME280;4604;48.616;9.548;2023-02-12T00:18:12;98833.22;;;3.71;100.00
9139;BME280;4604;48.616;9.548;2023-02-12T00:20:39;98829.69;;;3.72;100.00
9139;BME280;4604;48.616;9.548;2023-02-12T00:23:09;98831.41;;;3.73;100.00
9139;BME280;4604;48.616;9.548;2023-02-12T00:25:39;98834.91;;;3.72;100.00
9139;BME280;4604;48.616;9.548;2023-02-12T00:28:06;98834.88;;;3.74;100.00
9139;BME280;4604;48.616;9.548;2023-02-12T00:30:34;98835.75;;;3.73;100.00
9139;BME280;4604;48.616;9.548;2023-02-12T00:33:01;98828.88;;;3.70;100.00
9139;BME280;4604;48.616;9.548;2023-02-12T00:35:27;98828.94;;;3.69;100.00
9139;BME280;4604;48.616;9.548;2023-02-12T00:37:54;98834.97;;;3.71;100.00
9139;BME280;4604;48.616;9.548;2023-02-12T00:40:22;98833.13;;;3.73;100.00
9139;BME280;4604;48.616;9.548;2023-02-12T00:42:48;98837.63;;;3.69;100.00
9139;BME280;4604;48.616;9.548;2023-02-12T00:45:15;98838.56;;;3.67;100.00
9139;BME280;4604;48.616;9.548;2023-02-12T00:47:42;98834.16;;;3.69;100.00
9139;BME280;4604;48.616;9.548;2023-02-12T00:50:09;98829.91;;;3.66;100.00
9139;BME280;4604;48.616;9.548;2023-02-12T00:52:36;98833.25;;;3.70;100.00
9139;BME280;4604;48.616;9.548;2023-02-12T00:55:03;98832.44;;;3.68;100.00
9139;BME280;4604;48.616;9.548;2023-02-12T00:57:32;98844.59;;;3.69;100.00
9139;BME280;4604;48.616;9.548;2023-02-12T00:59:58;98836.69;;;3.70;100.00
9139;BME280;4604;48.616;9.548;2023-02-12T01:02:25;98840.19;;;3.71;100.00
9139;BME280;4604;48.616;9.548;2023-02-12T01:04:52;98842.00;;;3.69;100.00
9139;BME280;4604;48.616;9.548;2023-02-12T01:07:18;98847.84;;;3.75;100.00
9139;BME280;4604;48.616;9.548;2023-02-12T01:09:45;98848.88;;;3.71;100.00
9139;BME280;4604;48.616;9.548;2023-02-12T01:12:11;98838.69;;;3.63;100.00
9139;BME280;4604;48.616;9.548;2023-02-12T01:14:39;98842.03;;;3.67;100.00
9139;BME280;4604;48.616;9.548;2023-02-12T01:17:06;98842.72;;;3.72;100.00
9139;BME280;4604;48.616;9.548;2023-02-12T01:19:33;98842.81;;;3.71;100.00
9139;BME280;4604;48.616;9.548;2023-02-12T01:22:00;98849.69;;;3.73;100.00
9139;BME280;4604;48.616;9.548;2023-02-12T01:24:27;98847.06;;;3.73;100.00
9139;BME280;4604;48.616;9.548;2023-02-12T01:26:53;98849.69;;;3.73;100.00
9139;BME280;4604;48.616;9.548;2023-02-12T01:29:20;98853.16;;;3.74;100.00
9139;BME280;4604;48.616;9.548;2023-02-12T01:31:48;98850.53;;;3.74;100.00
9139;BME280;4604;48.616;9.548;2023-02-12T01:34:14;98838.59;;;3.65;100.00
9139;BME280;4604;48.616;9.548;2023-02-12T01:36:41;98845.31;;;3.74;100.00
9139;BME280;4604;48.616;9.548;2023-02-12T01:39:09;98841.19;;;3.67;100.00
9139;BME280;4604;48.616;9.548;2023-02-12T01:41:39;98860.63;;;3.84;100.00
9139;BME280;4604;48.616;9.548;2023-02-12T01:44:10;98848.66;;;3.77;100.00
9139;BME280;4604;48.616;9.548;2023-02-12T01:46:37;98851.28;;;3.77;100.00
9139;BME280;4604;48.616;9.548;2023-02-12T01:49:08;98853.00;;;3.78;100.00
9139;BME280;4604;48.616;9.548;2023-02-12T01:51:36;98850.44;;;3.77;100.00
9139;BME280;4604;48.616;9.548;2023-02-12T01:54:06;98847.81;;;3.77;100.00
9139;BME280;4604;48.616;9.548;2023-02-12T01:56:34;98841.84;;;3.73;100.00
9139;BME280;4604;48.616;9.548;2023-02-12T01:59:01;98840.81;;;3.77;100.00
9139;BME280;4604;48.616;9.548;2023-02-12T02:01:29;98835.72;;;3.74;100.00
9139;BME280;4604;48.616;9.548;2023-02-12T02:04:00;98832.25;;;3.74;100.00
9139;BME280;4604;48.616;9.548;2023-02-12T02:06:32;98830.63;;;3.70;100.00
9139;BME280;4604;48.616;9.548;2023-02-12T02:09:00;98829.78;;;3.69;100.00
9139;BME280;4604;48.616;9.548;2023-02-12T02:11:27;98814.31;;;3.63;100.00
9139;BME280;4604;48.616;9.548;2023-02-12T02:14:11;98827.19;;;3.69;100.00
9139;BME280;4604;48.616;9.548;2023-02-12T02:17:05;98828.94;;;3.69;100.00
9139;BME280;4604;48.616;9.548;2023-02-12T02:22:34;98828.06;;;3.68;100.00
9139;BME280;4604;48.616;9.548;2023-02-12T02:28:25;98819.31;;;3.71;100.00
9139;BME280;4604;48.616;9.548;2023-02-12T02:31:03;98820.19;;;3.70;100.00
9139;BME280;4604;48.616;9.548;2023-02-12T02:33:37;98821.13;;;3.67;100.00
9139;BME280;4604;48.616;9.548;2023-02-12T02:36:22;98819.31;;;3.71;100.00
9139;BME280;4604;48.616;9.548;2023-02-12T02:38:54;98807.34;;;3.63;100.00
9139;BME280;4604;48.616;9.548;2023-02-12T02:41:28;98819.31;;;3.71;100.00
9139;BME280;4604;48.616;9.548;2023-02-12T02:43:57;98818.44;;;3.70;100.00
9139;BME280;4604;48.616;9.548;2023-02-12T02:46:30;98818.44;;;3.70;100.00
9139;BME280;4604;48.616;9.548;2023-02-12T02:49:01;98817.69;;;3.67;100.00
9139;BME280;4604;48.616;9.548;2023-02-12T02:51:32;98813.28;;;3.69;100.00
9139;BME280;4604;48.616;9.548;2023-02-12T02:54:04;98806.41;;;3.66;100.00
9139;BME280;4604;48.616;9.548;2023-02-12T02:56:36;98812.47;;;3.67;100.00
9139;BME280;4604;48.616;9.548;2023-02-12T02:59:06;98815.09;;;3.65;100.00
9139;BME280;4604;48.616;9.548;2023-02-12T03:01:39;98808.19;;;3.64;100.00
9139;BME280;4604;48.616;9.548;2023-02-12T03:04:09;98807.34;;;3.63;100.00
9139;BME280;4604;48.616;9.548;2023-02-12T03:06:42;98813.31;;;3.67;100.00
9139;BME280;4604;48.616;9.548;2023-02-12T03:09:15;98814.31;;;3.63;100.00
9139;BME280;4604;48.616;9.548;2023-02-12T03:11:45;98822.19;;;3.61;100.00
9139;BME280;4604;48.616;9.548;2023-02-12T03:14:15;98818.75;;;3.61;100.00
9139;BME280;4604;48.616;9.548;2023-02-12T03:16:50;98821.34;;;3.61;100.00
9139;BME280;4604;48.616;9.548;2023-02-12T03:19:20;98820.47;;;3.60;100.00
9139;BME280;4604;48.616;9.548;2023-02-12T03:21:51;98822.19;;;3.61;100.00
9139;BME280;4604;48.616;9.548;2023-02-12T03:24:23;98822.94;;;3.65;100.00
9139;BME280;4604;48.616;9.548;2023-02-12T03:26:58;98825.16;;;3.77;100.00
9139;BME280;4604;48.616;9.548;2023-02-12T03:29:28;98826.25;;;3.70;100.00
9139;BME280;4604;48.616;9.548;2023-02-12T03:32:05;98832.44;;;3.68;100.00
9139;BME280;4604;48.616;9.548;2023-02-12T03:34:43;98822.66;;;3.74;100.00
9139;BME280;4604;48.616;9.548;2023-02-12T03:37:17;98824.31;;;3.77;100.00
9139;BME280;4604;48.616;9.548;2023-02-12T03:39:50;98820.84;;;3.76;100.00
9139;BME280;4604;48.616;9.548;2023-02-12T03:42:23;98830.34;;;3.79;100.00
9139;BME280;4604;48.616;9.548;2023-02-12T03:44:55;98830.34;;;3.79;100.00
9139;BME280;4604;48.616;9.548;2023-02-12T03:47:33;98826.97;;;3.75;100.00
9139;BME280;4604;48.616;9.548;2023-02-12T03:50:09;98829.56;;;3.75;100.00
9139;BME280;4604;48.616;9.548;2023-02-12T03:52:38;98832.16;;;3.77;100.00
9139;BME280;4604;48.616;9.548;2023-02-12T03:55:05;98829.63;;;3.74;100.00
9139;BME280;4604;48.616;9.548;2023-02-12T03:57:37;98830.59;;;3.71;100.00
9139;BME280;4604;48.616;9.548;2023-02-12T04:00:07;98834.91;;;3.72;100.00
9139;BME280;4604;48.616;9.548;2023-02-12T04:02:36;98826.25;;;3.70;100.00
9139;BME280;4604;48.616;9.548;2023-02-12T04:05:04;98824.47;;;3.72;100.00
9139;BME280;4604;48.616;9.548;2023-02-12T04:07:31;98835.75;;;3.73;100.00
9139;BME280;4604;48.616;9.548;2023-02-12T04:09:58;98838.50;;;3.68;100.00
9139;BME280;4604;48.616;9.548;2023-02-12T04:12:39;98836.78;;;3.69;100.00
9139;BME280;4604;48.616;9.548;2023-02-12T04:18:03;98841.94;;;3.70;100.00
9139;BME280;4604;48.616;9.548;2023-02-12T04:20:41;98845.50;;;3.68;100.00
9139;BME280;4604;48.616;9.548;2023-02-12T04:23:31;98847.41;;;3.62;100.00
9139;BME280;4604;48.616;9.548;2023-02-12T04:26:08;98854.28;;;3.65;100.00
9139;BME280;4604;48.616;9.548;2023-02-12T04:28:42;98844.69;;;3.65;100.00
9139;BME280;4604;48.616;9.548;2023-02-12T04:31:21;98847.16;;;3.70;100.00
9139;BME280;4604;48.616;9.548;2023-02-12T04:33:57;98843.66;;;3.71;100.00
9139;BME280;4604;48.616;9.548;2023-02-12T04:36:31;98850.63;;;3.71;100.00
9139;BME280;4604;48.616;9.548;2023-02-12T04:39:01;98855.78;;;3.72;100.00
9139;BME280;4604;48.616;9.548;2023-02-12T04:41:30;98854.91;;;3.73;100.00
9139;BME280;4604;48.616;9.548;2023-02-12T04:43:57;98841.13;;;3.68;100.00
9139;BME280;4604;48.616;9.548;2023-02-12T04:46:23;98846.31;;;3.70;100.00
9139;BME280;4604;48.616;9.548;2023-02-12T04:48:54;98848.88;;;3.71;100.00
9139;BME280;4604;48.616;9.548;2023-02-12T04:51:22;98858.41;;;3.72;100.00
9139;BME280;4604;48.616;9.548;2023-02-12T04:53:49;98855.78;;;3.72;100.00
9139;BME280;4604;48.616;9.548;2023-02-12T04:56:16;98855.91;;;3.69;100.00
9139;BME280;4604;48.616;9.548;2023-02-12T04:58:43;98847.25;;;3.67;100.00
9139;BME280;4604;48.616;9.548;2023-02-12T05:01:09;98850.00;;;3.62;100.00
9139;BME280;4604;48.616;9.548;2023-02-12T05:03:36;98841.47;;;3.57;100.00
9139;BME280;4604;48.616;9.548;2023-02-12T05:06:06;98856.03;;;3.64;100.00
9139;BME280;4604;48.616;9.548;2023-02-12T05:08:33;98839.56;;;3.62;100.00
9139;BME280;4604;48.616;9.548;2023-02-12T05:11:04;98845.63;;;3.63;100.00
9139;BME280;4604;48.616;9.548;2023-02-12T05:13:31;98847.63;;;3.55;100.00
9139;BME280;4604;48.616;9.548;2023-02-12T05:15:58;98856.16;;;3.61;100.00
9139;BME280;4604;48.616;9.548;2023-02-12T05:18:25;98857.84;;;3.62;100.00
9139;BME280;4604;48.616;9.548;2023-02-12T05:20:55;98853.56;;;3.60;100.00
9139;BME280;4604;48.616;9.548;2023-02-12T05:23:25;98854.50;;;3.59;100.00
9139;BME280;4604;48.616;9.548;2023-02-12T05:25:52;98847.59;;;3.56;100.00
9139;BME280;4604;48.616;9.548;2023-02-12T05:28:19;98839.78;;;3.56;100.00
9139;BME280;4604;48.616;9.548;2023-02-12T05:30:46;98845.06;;;3.53;100.00
9139;BME280;4604;48.616;9.548;2023-02-12T05:33:12;98847.69;;;3.53;100.00
9139;BME280;4604;48.616;9.548;2023-02-12T05:35:39;98852.13;;;3.51;100.00
9139;BME280;4604;48.616;9.548;2023-02-12T05:38:06;98853.00;;;3.50;100.00
9139;BME280;4604;48.616;9.548;2023-02-12T05:40:34;98854.75;;;3.50;100.00
9139;BME280;4604;48.616;9.548;2023-02-12T05:43:01;98856.56;;;3.48;100.00
9139;BME280;4604;48.616;9.548;2023-02-12T05:45:28;98856.44;;;3.52;100.00
9139;BME280;4604;48.616;9.548;2023-02-12T05:47:54;98851.16;;;3.54;100.00
9139;BME280;4604;48.616;9.548;2023-02-12T05:50:21;98855.47;;;3.55;100.00
9139;BME280;4604;48.616;9.548;2023-02-12T05:52:48;98855.50;;;3.53;100.00
9139;BME280;4604;48.616;9.548;2023-02-12T05:55:15;98859.00;;;3.54;100.00
9139;BME280;4604;48.616;9.548;2023-02-12T05:57:43;98858.94;;;3.55;100.00
9139;BME280;4604;48.616;9.548;2023-02-12T06:00:10;98853.72;;;3.55;100.00
9139;BME280;4604;48.616;9.548;2023-02-12T06:02:37;98860.56;;;3.59;100.00
9139;BME280;4604;48.616;9.548;2023-02-12T06:05:04;98859.72;;;3.59;100.00
9139;BME280;4604;48.616;9.548;2023-02-12T06:07:31;98858.06;;;3.56;100.00
9139;BME280;4604;48.616;9.548;2023-02-12T06:09:58;98851.88;;;3.59;100.00
9139;BME280;4604;48.616;9.548;2023-02-12T06:12:24;98845.03;;;3.55;100.00
9139;BME280;4604;48.616;9.548;2023-02-12T06:14:52;98850.25;;;3.55;100.00
9139;BME280;4604;48.616;9.548;2023-02-12T06:17:19;98857.34;;;3.51;100.00
9139;BME280;4604;48.616;9.548;2023-02-12T06:19:46;98852.19;;;3.48;100.00
9139;BME280;4604;48.616;9.548;2023-02-12T06:22:12;98853.84;;;3.51;100.00
9139;BME280;4604;48.616;9.548;2023-02-12T06:24:39;98859.94;;;3.51;100.00
9139;BME280;4604;48.616;9.548;2023-02-12T06:27:05;98841.88;;;3.43;100.00
9139;BME280;4604;48.616;9.548;2023-02-12T06:29:32;98853.84;;;3.51;100.00
9139;BME280;4604;48.616;9.548;2023-02-12T06:32:00;98863.34;;;3.53;100.00
9139;BME280;4604;48.616;9.548;2023-02-12T06:34:27;98859.78;;;3.56;100.00
9139;BME280;4604;48.616;9.548;2023-02-12T06:36:53;98861.53;;;3.55;100.00
9139;BME280;4604;48.616;9.548;2023-02-12T06:39:20;98865.00;;;3.56;100.00
9139;BME280;4604;48.616;9.548;2023-02-12T06:41:46;98868.50;;;3.56;100.00
9139;BME280;4604;48.616;9.548;2023-02-12T06:44:13;98875.44;;;3.56;100.00
9139;BME280;4604;48.616;9.548;2023-02-12T06:46:40;98865.91;;;3.55;100.00
9139;BME280;4604;48.616;9.548;2023-02-12T06:49:11;98875.38;;;3.59;100.00
9139;BME280;4604;48.616;9.548;2023-02-12T06:51:38;98873.66;;;3.58;100.00
9139;BME280;4604;48.616;9.548;2023-02-12T06:54:11;98865.94;;;3.53;100.00
9139;BME280;4604;48.616;9.548;2023-02-12T06:56:38;98864.13;;;3.57;100.00
9139;BME280;4604;48.616;9.548;2023-02-12T06:59:05;98870.09;;;3.60;100.00
9139;BME280;4604;48.616;9.548;2023-02-12T07:01:32;98866.59;;;3.61;100.00
9139;BME280;4604;48.616;9.548;2023-02-12T07:04:01;98875.13;;;3.67;100.00
9139;BME280;4604;48.616;9.548;2023-02-12T07:06:30;98877.66;;;3.68;100.00
9139;BME280;4604;48.616;9.548;2023-02-12T07:08:58;98883.72;;;3.70;100.00
9139;BME280;4604;48.616;9.548;2023-02-12T07:11:26;98878.59;;;3.67;100.00
9139;BME280;4604;48.616;9.548;2023-02-12T07:13:53;98883.63;;;3.73;100.00
9139;BME280;4604;48.616;9.548;2023-02-12T07:16:20;98881.72;;;3.78;100.00
9139;BME280;4604;48.616;9.548;2023-02-12T07:18:47;98879.84;;;3.82;100.00
9139;BME280;4604;48.616;9.548;2023-02-12T07:21:15;98882.38;;;3.85;100.00
9139;BME280;4604;48.616;9.548;2023-02-12T07:23:46;98883.97;;;3.89;100.00
9139;BME280;4604;48.616;9.548;2023-02-12T07:26:14;98888.25;;;3.92;100.00
9139;BME280;4604;48.616;9.548;2023-02-12T07:28:41;98886.50;;;3.92;100.00
9139;BME280;4604;48.616;9.548;2023-02-12T07:31:10;98886.44;;;3.94;100.00
9139;BME280;4604;48.616;9.548;2023-02-12T07:33:37;98885.50;;;3.96;100.00
9139;BME280;4604;48.616;9.548;2023-02-12T07:36:07;98885.38;;;3.99;100.00
9139;BME280;4604;48.616;9.548;2023-02-12T07:38:33;98875.78;;;4.00;100.00
9139;BME280;4604;48.616;9.548;2023-02-12T07:41:10;98879.06;;;4.06;100.00
9139;BME280;4604;48.616;9.548;2023-02-12T07:43:38;98879.06;;;4.06;100.00
9139;BME280;4604;48.616;9.548;2023-02-12T07:46:07;98887.19;;;4.24;100.00
9139;BME280;4604;48.616;9.548;2023-02-12T07:48:34;98887.34;;;4.19;100.00
9139;BME280;4604;48.616;9.548;2023-02-12T07:51:03;98889.06;;;4.20;100.00
9139;BME280;4604;48.616;9.548;2023-02-12T07:53:30;98892.53;;;4.21;100.00
9139;BME280;4604;48.616;9.548;2023-02-12T07:56:04;98889.66;;;4.28;100.00
9139;BME280;4604;48.616;9.548;2023-02-12T07:58:32;98884.25;;;4.35;100.00
9139;BME280;4604;48.616;9.548;2023-02-12T08:00:58;98884.47;;;4.54;100.00
9139;BME280;4604;48.616;9.548;2023-02-12T08:03:27;98883.38;;;4.59;100.00
9139;BME280;4604;48.616;9.548;2023-02-12T08:05:53;98874.34;;;4.68;100.00
9139;BME280;4604;48.616;9.548;2023-02-12T08:08:20;98878.38;;;4.78;100.00
9139;BME280;4604;48.616;9.548;2023-02-12T08:10:46;98876.31;;;4.86;100.00
9139;BME280;4604;48.616;9.548;2023-02-12T08:13:13;98881.22;;;4.96;100.00
9139;BME280;4604;48.616;9.548;2023-02-12T08:15:41;98878.22;;;5.06;100.00
9139;BME280;4604;48.616;9.548;2023-02-12T08:18:07;98883.28;;;5.11;100.00
9139;BME280;4604;48.616;9.548;2023-02-12T08:20:34;98881.63;;;5.08;100.00
9139;BME280;4604;48.616;9.548;2023-02-12T08:23:01;98885.78;;;5.14;100.00
9139;BME280;4604;48.616;9.548;2023-02-12T08:25:27;98881.22;;;5.19;100.00
9139;BME280;4604;48.616;9.548;2023-02-12T08:27:54;98876.78;;;5.21;100.00
9139;BME280;4604;48.616;9.548;2023-02-12T08:30:20;98871.25;;;5.29;100.00
9139;BME280;4604;48.616;9.548;2023-02-12T08:32:49;98864.78;;;5.39;100.00
9139;BME280;4604;48.616;9.548;2023-02-12T08:35:15;98873.34;;;5.43;100.00
9139;BME280;4604;48.616;9.548;2023-02-12T08:37:44;98869.72;;;5.47;100.00
9139;BME280;4604;48.616;9.548;2023-02-12T08:40:11;98877.47;;;5.72;100.00
9139;BME280;4604;48.616;9.548;2023-02-12T08:42:38;98874.72;;;5.75;100.00
9139;BME280;4604;48.616;9.548;2023-02-12T08:45:06;98873.72;;;5.77;100.00
9139;BME280;4604;48.616;9.548;2023-02-12T08:47:33;98872.56;;;5.85;100.00
9139;BME280;4604;48.616;9.548;2023-02-12T08:50:01;98866.63;;;6.03;100.00
9139;BME280;4604;48.616;9.548;2023-02-12T08:52:28;98878.31;;;6.16;100.00
9139;BME280;4604;48.616;9.548;2023-02-12T08:54:54;98871.00;;;6.45;100.00
9139;BME280;4604;48.616;9.548;2023-02-12T08:57:21;98872.94;;;6.81;100.00
9139;BME280;4604;48.616;9.548;2023-02-12T08:59:47;98872.84;;;7.03;100.00
9139;BME280;4604;48.616;9.548;2023-02-12T09:02:14;98874.56;;;7.23;99.15
9139;BME280;4604;48.616;9.548;2023-02-12T09:04:41;98869.91;;;7.29;97.31
9139;BME280;4604;48.616;9.548;2023-02-12T09:07:08;98867.19;;;7.31;96.50
9139;BME280;4604;48.616;9.548;2023-02-12T09:09:35;98879.47;;;7.31;96.61
9139;BME280;4604;48.616;9.548;2023-02-12T09:12:02;98869.25;;;7.24;95.53
9139;BME280;4604;48.616;9.548;2023-02-12T09:14:29;98872.09;;;7.20;95.28
9139;BME280;4604;48.616;9.548;2023-02-12T09:16:55;98879.25;;;7.16;94.76
9139;BME280;4604;48.616;9.548;2023-02-12T09:19:22;98876.63;;;7.16;94.28
9139;BME280;4604;48.616;9.548;2023-02-12T09:21:54;98881.03;;;7.16;94.97
9139;BME280;4604;48.616;9.548;2023-02-12T09:24:22;98875.25;;;7.26;93.85
9139;BME280;4604;48.616;9.548;2023-02-12T09:26:49;98869.47;;;7.20;94.19
9139;BME280;4604;48.616;9.548;2023-02-12T09:29:16;98873.53;;;7.27;94.27
9139;BME280;4604;48.616;9.548;2023-02-12T09:31:42;98869.75;;;7.33;93.29
9139;BME280;4604;48.616;9.548;2023-02-12T09:34:09;98864.63;;;7.29;93.53
9139;BME280;4604;48.616;9.548;2023-02-12T09:36:36;98869.69;;;7.34;93.55
9139;BME280;4604;48.616;9.548;2023-02-12T09:39:03;98871.09;;;7.41;92.58
9139;BME280;4604;48.616;9.548;2023-02-12T09:44:43;98877.31;;;7.58;92.56
9139;BME280;4604;48.616;9.548;2023-02-12T09:47:14;98872.66;;;7.64;92.38
9139;BME280;4604;48.616;9.548;2023-02-12T09:50:17;98879.53;;;7.67;91.96
9139;BME280;4604;48.616;9.548;2023-02-12T09:52:53;98877.31;;;7.77;91.15
9139;BME280;4604;48.616;9.548;2023-02-12T09:55:24;98880.94;;;7.74;90.15
9139;BME280;4604;48.616;9.548;2023-02-12T09:57:52;98881.47;;;7.63;91.14
9139;BME280;4604;48.616;9.548;2023-02-12T10:00:24;98880.16;;;7.72;91.02
9139;BME280;4604;48.616;9.548;2023-02-12T10:02:53;98889.19;;;7.85;88.90
9139;BME280;4604;48.616;9.548;2023-02-12T10:05:26;98890.66;;;7.72;90.34
9139;BME280;4604;48.616;9.548;2023-02-12T10:08:10;98879.25;;;7.73;91.15
9139;BME280;4604;48.616;9.548;2023-02-12T10:10:50;98888.47;;;7.82;91.15
9139;BME280;4604;48.616;9.548;2023-02-12T10:13:29;98879.97;;;7.94;89.66
9139;BME280;4604;48.616;9.548;2023-02-12T10:16:07;98884.34;;;7.95;87.65
9139;BME280;4604;48.616;9.548;2023-02-12T10:18:45;98889.34;;;8.00;88.06
9139;BME280;4604;48.616;9.548;2023-02-12T10:21:31;98882.44;;;7.97;88.58
9139;BME280;4604;48.616;9.548;2023-02-12T10:24:22;98882.38;;;7.99;89.33
9139;BME280;4604;48.616;9.548;2023-02-12T10:26:55;98871.25;;;7.93;89.32
9139;BME280;4604;48.616;9.548;2023-02-12T10:29:25;98888.84;;;8.10;87.36
9139;BME280;4604;48.616;9.548;2023-02-12T10:31:59;98884.97;;;8.35;86.56
9139;BME280;4604;48.616;9.548;2023-02-12T10:34:32;98881.91;;;8.27;87.58
9139;BME280;4604;48.616;9.548;2023-02-12T10:37:02;98882.75;;;8.27;88.04
9139;BME280;4604;48.616;9.548;2023-02-12T10:39:34;98877.09;;;8.35;87.76
9139;BME280;4604;48.616;9.548;2023-02-12T10:42:10;98875.25;;;8.37;87.50
9139;BME280;4604;48.616;9.548;2023-02-12T10:44:38;98874.94;;;8.43;86.10
9139;BME280;4604;48.616;9.548;2023-02-12T10:47:10;98871.19;;;8.49;86.11
9139;BME280;4604;48.616;9.548;2023-02-12T10:49:41;98863.66;;;8.59;85.74
9139;BME280;4604;48.616;9.548;2023-02-12T10:52:11;98867.31;;;8.56;85.46
9139;BME280;4604;48.616;9.548;2023-02-12T10:54:43;98866.28;;;8.59;85.86
9139;BME280;4604;48.616;9.548;2023-02-12T10:57:14;98855.75;;;8.59;85.68
9139;BME280;4604;48.616;9.548;2023-02-12T10:59:43;98857.16;;;8.66;84.94
9139;BME280;4604;48.616;9.548;2023-02-12T11:02:24;98855.13;;;8.71;85.38
9139;BME280;4604;48.616;9.548;2023-02-12T11:04:52;98860.16;;;8.75;85.57
9139;BME280;4604;48.616;9.548;2023-02-12T11:07:20;98859.16;;;8.78;84.39
9139;BME280;4604;48.616;9.548;2023-02-12T11:09:49;98856.50;;;8.78;84.77
9139;BME280;4604;48.616;9.548;2023-02-12T11:12:25;98860.25;;;8.90;82.64
9139;BME280;4604;48.616;9.548;2023-02-12T11:14:56;98859.59;;;8.86;82.53
9139;BME280;4604;48.616;9.548;2023-02-12T11:17:27;98846.28;;;8.72;82.43
9139;BME280;4604;48.616;9.548;2023-02-12T11:20:06;98850.88;;;8.68;84.32
9139;BME280;4604;48.616;9.548;2023-02-12T11:22:35;98845.63;;;8.68;83.63
9139;BME280;4604;48.616;9.548;2023-02-12T11:25:13;98852.00;;;8.80;83.14
9139;BME280;4604;48.616;9.548;2023-02-12T11:27:41;98848.50;;;8.46;84.41
9139;BME280;4604;48.616;9.548;2023-02-12T11:30:15;98848.94;;;8.37;86.61
9139;BME280;4604;48.616;9.548;2023-02-12T11:32:43;98846.00;;;8.43;86.13
9139;BME280;4604;48.616;9.548;2023-02-12T11:35:13;98854.09;;;8.39;86.56
9139;BME280;4604;48.616;9.548;2023-02-12T11:37:44;98849.84;;;8.36;87.94
9139;BME280;4604;48.616;9.548;2023-02-12T11:40:21;98857.25;;;8.47;85.88
9139;BME280;4604;48.616;9.548;2023-02-12T11:42:51;98851.16;;;8.27;86.61
9139;BME280;4604;48.616;9.548;2023-02-12T11:45:22;98852.47;;;8.36;86.83
9139;BME280;4604;48.616;9.548;2023-02-12T11:47:52;98858.13;;;8.28;86.89
9139;BME280;4604;48.616;9.548;2023-02-12T11:50:24;98854.72;;;8.09;88.55
9139;BME280;4604;48.616;9.548;2023-02-12T11:52:54;98854.31;;;7.99;89.66
9139;BME280;4604;48.616;9.548;2023-02-12T11:55:24;98846.97;;;7.88;90.29
9139;BME280;4604;48.616;9.548;2023-02-12T11:57:52;98847.69;;;8.27;87.96
9139;BME280;4604;48.616;9.548;2023-02-12T12:00:23;98847.94;;;8.22;87.92
9139;BME280;4604;48.616;9.548;2023-02-12T12:02:56;98853.19;;;8.05;89.10
9139;BME280;4604;48.616;9.548;2023-02-12T12:05:28;98840.03;;;8.05;89.01
9139;BME280;4604;48.616;9.548;2023-02-12T12:07:59;98858.09;;;7.93;89.68
9139;BME280;4604;48.616;9.548;2023-02-12T12:10:33;98838.88;;;7.74;92.34
9139;BME280;4604;48.616;9.548;2023-02-12T12:13:04;98841.75;;;7.87;91.72
9139;BME280;4604;48.616;9.548;2023-02-12T12:15:40;98840.50;;;7.77;93.35
9139;BME280;4604;48.616;9.548;2023-02-12T12:18:32;98837.19;;;7.73;93.37
9139;BME280;4604;48.616;9.548;2023-02-12T12:21:23;98843.38;;;7.72;93.40
9139;BME280;4604;48.616;9.548;2023-02-12T12:23:54;98835.31;;;7.75;93.57
9139;BME280;4604;48.616;9.548;2023-02-12T12:26:25;98835.59;;;7.88;93.08
9139;BME280;4604;48.616;9.548;2023-02-12T12:28:58;98838.84;;;7.93;92.54
9139;BME280;4604;48.616;9.548;2023-02-12T12:31:30;98835.44;;;8.08;90.80
9139;BME280;4604;48.616;9.548;2023-02-12T12:34:05;98826.31;;;7.98;91.12
9139;BME280;4604;48.616;9.548;2023-02-12T12:36:59;98831.25;;;8.04;91.01
9139;BME280;4604;48.616;9.548;2023-02-12T12:39:34;98832.81;;;8.08;91.16
9139;BME280;4604;48.616;9.548;2023-02-12T12:42:17;98823.25;;;8.25;90.19
9139;BME280;4604;48.616;9.548;2023-02-12T12:45:04;98820.06;;;8.35;89.70
9139;BME280;4604;48.616;9.548;2023-02-12T12:47:43;98809.47;;;8.37;87.97
9139;BME280;4604;48.616;9.548;2023-02-12T12:50:40;98812.94;;;8.38;88.95
9139;BME280;4604;48.616;9.548;2023-02-12T12:53:18;98815.69;;;8.53;88.45
9139;BME280;4604;48.616;9.548;2023-02-12T12:56:15;98817.41;;;8.70;85.43
9139;BME280;4604;48.616;9.548;2023-02-12T12:59:08;98807.28;;;8.63;85.09
9139;BME280;4604;48.616;9.548;2023-02-12T13:01:56;98817.03;;;8.26;87.18
9139;BME280;4604;48.616;9.548;2023-02-12T13:04:45;98825.25;;;8.02;90.17
9139;BME280;4604;48.616;9.548;2023-02-12T13:07:26;98820.44;;;8.10;91.07
9139;BME280;4604;48.616;9.548;2023-02-12T13:10:10;98821.38;;;8.27;90.43
9139;BME280;4604;48.616;9.548;2023-02-12T13:13:01;98820.16;;;8.51;88.81
9139;BME280;4604;48.616;9.548;2023-02-12T13:15:35;98817.75;;;8.80;87.35
9139;BME280;4604;48.616;9.548;2023-02-12T13:18:12;98806.13;;;9.17;85.04
9139;BME280;4604;48.616;9.548;2023-02-12T13:20:46;98812.72;;;9.09;81.89
9139;BME280;4604;48.616;9.548;2023-02-12T13:23:22;98792.38;;;8.79;83.91
9139;BME280;4604;48.616;9.548;2023-02-12T13:26:00;98805.31;;;8.84;84.42
9139;BME280;4604;48.616;9.548;2023-02-12T13:28:33;98800.56;;;8.90;83.89
9139;BME280;4604;48.616;9.548;2023-02-12T13:31:05;98796.31;;;8.88;84.42
9139;BME280;4604;48.616;9.548;2023-02-12T13:33:38;98782.88;;;8.92;82.96
9139;BME280;4604;48.616;9.548;2023-02-12T13:36:09;98789.28;;;9.20;81.75
9139;BME280;4604;48.616;9.548;2023-02-12T13:38:43;98784.19;;;9.17;80.36
9139;BME280;4604;48.616;9.548;2023-02-12T13:41:11;98787.09;;;9.12;80.82
9139;BME280;4604;48.616;9.548;2023-02-12T13:43:47;98779.94;;;8.98;81.85
9139;BME280;4604;48.616;9.548;2023-02-12T13:46:24;98779.47;;;8.74;84.26
9139;BME280;4604;48.616;9.548;2023-02-12T13:49:01;98782.97;;;8.91;81.63
9139;BME280;4604;48.616;9.548;2023-02-12T13:51:38;98787.44;;;8.73;82.18
9139;BME280;4604;48.616;9.548;2023-02-12T13:54:19;98772.41;;;8.75;82.30
9139;BME280;4604;48.616;9.548;2023-02-12T13:56:50;98775.50;;;8.50;83.65